Latest Weather Observations for Flinders Island Airport

IDT60801

Issued at 8:05 pm EST Sunday 31 August 2014 (issued every 30 minutes, with the page automatically refreshed every 10 minutes)

About weather observations | Map of weather stations | Latest weather observations for TAS | Other Formats
Station Details ID: 099005 Name: FLINDERS ISLAND AIRPORT Lat: -40.09 Lon: 148.00 Height: 9.0 m
Data from the previous 72 hours. | See also: Recent months at Flinders Island Airport
Date/Time
EST
Temp
°C
App
Temp
°C
Dew
Point
Rel
Hum
%
Delta-T
°C
Wind Press
QNH
hPa
Press
MSL
hPa
Rain
since 9 am
mm
Dir
 
Spd
km/h
Gust
km/h
Spd
kts
Gust
kts
31/08:00pm 12.3 7.9 8.8 79 1.7 NNE 22 30 12 16 1014.1 1014.2 0.0
31/07:30pm 12.2 7.9 9.4 83 1.4 NNE 22 28 12 15 1014.2 1014.3 0.0
31/07:00pm 12.5 8.8 9.5 82 1.5 NNE 19 28 10 15 1014.3 1014.4 0.0
31/06:30pm 12.8 8.8 9.1 78 1.9 NNE 20 28 11 15 1014.3 1014.4 0.0
31/06:00pm 12.7 8.3 9.0 78 1.9 NNE 22 28 12 15 1014.4 1014.5 0.0
31/05:30pm 13.4 9.6 9.1 75 2.2 NNE 19 24 10 13 1014.3 1014.4 0.0
31/05:00pm 14.6 11.3 9.6 72 2.6 NNE 17 22 9 12 1014.4 1014.5 0.0
31/04:30pm 15.8 12.3 10.1 69 3.0 NNE 19 24 10 13 1014.4 1014.5 0.0
31/04:00pm 16.6 12.9 10.2 66 3.4 NNE 20 26 11 14 1014.5 1014.6 0.0
31/03:30pm 17.1 13.7 10.7 66 3.4 NNE 19 26 10 14 1014.7 1014.8 0.0
31/03:00pm 17.6 14.2 10.7 64 3.7 NNE 19 28 10 15 1015.1 1015.2 0.0
31/02:30pm 17.8 14.0 9.9 60 4.2 NNE 20 26 11 14 1015.4 1015.5 0.0
31/02:00pm 18.4 14.8 10.7 61 4.1 NNE 20 28 11 15 1015.7 1015.8 0.0
31/01:30pm 18.1 14.4 10.2 60 4.2 N 20 30 11 16 1016.1 1016.2 0.0
31/01:00pm 17.4 12.7 9.3 59 4.2 N 24 32 13 17 1016.4 1016.5 0.0
31/12:30pm 17.7 14.0 10.1 61 4.0 N 20 32 11 17 1016.7 1016.8 0.0
31/12:00pm 17.4 13.3 10.1 62 3.9 NNE 22 30 12 16 1017.1 1017.2 0.0
31/11:30am 17.4 13.0 10.5 64 3.7 N 24 37 13 20 1017.6 1017.7 0.0
31/11:00am 17.0 13.6 10.6 66 3.4 N 19 32 10 17 1018.2 1018.2 0.0
31/10:30am 16.6 14.4 10.9 69 3.0 N 13 26 7 14 1018.7 1018.7 0.0
31/10:00am 15.8 13.1 11.8 77 2.2 N 17 26 9 14 1019.1 1019.1 0.0
31/09:30am 14.8 12.7 12.5 86 1.3 N 15 24 8 13 1019.3 1019.3 0.0
31/09:00am 14.3 13.9 12.9 91 0.8 N 7 17 4 9 1019.4 1019.4 0.0
31/08:40am 13.9 13.7 13.0 94 0.5 NE 6 20 3 11 1019.6 1019.6 0.0
31/08:30am 13.6 13.3 12.7 94 0.5 E 6 11 3 6 1019.6 1019.6 0.0
31/08:00am 11.8 10.8 11.0 95 0.4 ENE 7 11 4 6 1019.8 1019.8 0.0
31/07:30am 8.0 6.0 7.2 95 0.4 ENE 7 11 4 6 1020.0 1020.0 0.0
31/07:00am 5.6 3.3 4.7 94 0.4 E 6 7 3 4 1019.9 1019.9 0.0
31/06:44am 5.0 2.4 4.1 94 0.4 NE 7 9 4 5 1019.7 1019.7 0.0
31/06:33am 4.2 1.4 3.3 94 0.4 ENE 7 11 4 6 1019.6 1019.6 0.0
31/06:30am 4.2 1.4 3.3 94 0.4 ENE 7 11 4 6 1019.6 1019.6 0.0
31/06:00am 3.7 0.8 2.8 94 0.4 NE 7 7 4 4 1019.7 1019.7 0.0
31/05:40am 3.7 0.8 2.7 93 0.4 ENE 7 9 4 5 1019.9 1019.9 0.0
31/05:30am 3.6 0.3 2.6 93 0.4 ENE 9 11 5 6 1019.8 1019.8 0.0
31/05:13am 4.7 1.6 3.7 93 0.4 ENE 9 9 5 5 1019.9 1019.9 0.0
31/05:00am 4.1 1.3 3.1 93 0.4 ENE 7 9 4 5 1019.9 1019.9 0.0
31/04:55am 4.7 2.0 3.7 93 0.4 ENE 7 9 4 5 1019.8 1019.8 0.0
31/04:30am 6.7 4.4 5.7 93 0.4 ENE 7 9 4 5 1019.9 1019.9 0.0
31/04:00am 6.5 4.3 5.3 92 0.5 E 6 7 3 4 1020.1 1020.1 0.0
31/03:30am 7.6 6.8 6.4 92 0.5 CALM 0 6 0 3 1020.3 1020.3 0.0
31/03:00am 9.0 7.7 7.8 92 0.6 NNE 4 9 2 5 1020.5 1020.5 0.0
31/02:30am 9.4 7.3 8.2 92 0.6 E 9 13 5 7 1020.9 1020.9 0.0
31/02:00am 7.5 4.2 6.3 92 0.5 NE 13 15 7 8 1021.0 1021.0 0.0
31/01:30am 6.1 1.7 4.7 91 0.6 ENE 17 19 9 10 1021.5 1021.5 0.0
31/01:00am 6.8 2.9 5.3 90 0.7 ENE 15 19 8 10 1021.9 1021.9 0.0
31/12:30am 7.1 3.2 5.4 89 0.8 ENE 15 17 8 9 1022.4 1022.4 0.0
31/12:00am 7.0 3.0 5.0 87 0.9 ENE 15 17 8 9 1022.8 1022.8 0.0
 
Date/Time
EST
Temp
°C
App
Temp
°C
Dew
Point
Rel
Hum
%
Delta-T
°C
Wind Press
QNH
hPa
Press
MSL
hPa
Rain
since 9 am
mm
Dir
 
Spd
km/h
Gust
km/h
Spd
kts
Gust
kts
30/11:30pm 7.7 4.8 4.8 82 1.3 ENE 9 11 5 6 1023.2 1023.2 0.0
30/11:00pm 11.0 7.6 7.7 80 1.6 NE 15 20 8 11 1023.3 1023.3 0.0
30/10:30pm 10.7 6.6 7.9 83 1.4 NE 19 24 10 13 1023.4 1023.4 0.0
30/10:00pm 9.1 6.0 7.1 87 0.9 NE 13 17 7 9 1023.6 1023.6 0.0
30/09:30pm 8.2 4.2 6.5 89 0.8 NE 17 19 9 10 1023.8 1023.8 0.0
30/09:00pm 7.3 2.5 5.6 89 0.8 ENE 20 24 11 13 1023.9 1023.9 0.0
30/08:30pm 7.3 4.2 5.6 89 0.8 NE 11 15 6 8 1024.2 1024.2 0.0
30/08:00pm 6.0 2.6 4.2 88 0.8 NE 11 13 6 7 1024.4 1024.4 0.0
30/07:30pm 5.9 2.8 3.4 84 1.0 NE 9 11 5 6 1024.5 1024.5 0.0
30/07:00pm 6.4 3.2 3.0 79 1.4 ENE 9 11 5 6 1024.8 1024.8 0.0
30/06:30pm 8.5 7.3 4.5 76 1.8 CALM 0 0 0 0 1024.8 1024.8 0.0
30/06:00pm 10.4 7.8 6.0 74 2.0 NE 9 11 5 6 1024.8 1024.8 0.0
30/05:30pm 12.2 9.2 7.5 73 2.3 NE 13 17 7 9 1024.7 1024.7 0.0
30/05:00pm 13.6 9.9 7.8 68 2.8 NE 17 20 9 11 1024.6 1024.6 0.0
30/04:30pm 14.9 11.1 7.7 62 3.6 NE 17 20 9 11 1024.8 1024.8 0.0
30/04:00pm 15.2 11.3 7.2 59 3.9 NE 17 28 9 15 1024.9 1024.9 0.0
30/03:30pm 15.9 12.1 7.7 58 4.1 NNE 17 22 9 12 1025.2 1025.2 0.0
30/03:00pm 16.0 12.2 7.5 57 4.2 N 17 26 9 14 1025.3 1025.3 0.0
30/02:30pm 16.3 12.6 8.0 58 4.2 N 17 19 9 10 1025.3 1025.3 0.0
30/02:00pm 16.5 12.5 8.2 58 4.2 NE 19 28 10 15 1025.3 1025.3 0.0
30/01:30pm 16.2 11.9 7.9 58 4.2 NE 20 30 11 16 1025.6 1025.6 0.0
30/01:00pm 16.1 11.4 7.8 58 4.1 NE 22 30 12 16 1026.1 1026.1 0.0
30/12:30pm 16.2 11.9 7.7 57 4.3 NNE 20 28 11 15 1026.4 1026.4 0.0
30/12:00pm 15.8 11.5 6.8 55 4.4 NNE 19 28 10 15 1027.0 1027.0 0.0
30/11:30am 15.7 11.4 7.7 59 4.0 NE 20 28 11 15 1027.5 1027.5 0.0
30/11:00am 15.1 11.4 7.9 62 3.6 ENE 17 20 9 11 1028.1 1028.1 0.0
30/10:30am 15.4 13.2 9.3 67 3.1 ENE 11 15 6 8 1028.5 1028.5 0.0
30/10:00am 14.4 10.9 8.6 68 2.9 ENE 17 22 9 12 1028.8 1028.8 0.0
30/09:30am 13.9 10.9 10.5 80 1.8 ENE 17 26 9 14 1029.2 1029.2 0.0
30/09:00am 12.8 11.2 11.5 92 0.7 ENE 11 15 6 8 1029.3 1029.3 0.0
30/08:30am 11.2 10.2 10.4 95 0.4 ENE 6 9 3 5 1029.4 1029.4 0.0
30/08:00am 9.2 8.5 8.6 96 0.3 NE 2 7 1 4 1029.5 1029.5 0.0
30/07:30am 6.7 4.7 6.1 96 0.3 NE 6 7 3 4 1029.5 1029.5 0.0
30/07:00am 4.7 2.1 4.0 95 0.3 NE 7 11 4 6 1029.1 1029.1 0.0
30/06:30am 4.9 2.3 4.2 95 0.3 NE 7 9 4 5 1028.9 1028.9 0.0
30/06:00am 5.2 2.3 4.5 95 0.3 NE 9 11 5 6 1028.8 1028.8 0.0
30/05:30am 5.1 2.5 4.4 95 0.3 NE 7 9 4 5 1028.8 1028.8 0.0
30/05:00am 6.2 3.5 5.5 95 0.3 ENE 9 11 5 6 1028.9 1028.9 0.0
30/04:30am 6.5 3.8 5.8 95 0.3 NE 9 11 5 6 1029.0 1029.0 0.0
30/04:00am 6.6 4.0 5.9 95 0.3 ENE 9 13 5 7 1029.0 1029.0 0.0
30/03:30am 6.2 3.8 5.3 94 0.4 NE 7 9 4 5 1029.1 1029.1 0.0
30/03:00am 4.5 2.0 3.6 94 0.4 ENE 6 7 3 4 1029.2 1029.2 0.0
30/02:30am 5.9 3.6 5.0 94 0.4 SE 6 7 3 4 1029.3 1029.3 0.0
30/02:00am 6.9 5.6 6.0 94 0.4 SE 2 6 1 3 1029.4 1029.4 0.0
30/01:30am 7.9 5.5 7.0 94 0.4 NE 9 9 5 5 1029.6 1029.6 0.0
30/01:00am 8.2 7.2 7.3 94 0.4 SE 2 9 1 5 1029.7 1029.7 0.0
30/12:30am 9.0 7.2 8.1 94 0.4 ENE 7 11 4 6 1029.6 1029.6 0.0
30/12:00am 10.0 7.7 9.1 94 0.4 ENE 11 11 6 6 1029.6 1029.6 0.0
 
Date/Time
EST
Temp
°C
App
Temp
°C
Dew
Point
Rel
Hum
%
Delta-T
°C
Wind Press
QNH
hPa
Press
MSL
hPa
Rain
since 9 am
mm
Dir
 
Spd
km/h
Gust
km/h
Spd
kts
Gust
kts
29/11:30pm 9.1 7.0 8.2 94 0.4 ENE 9 13 5 7 1029.7 1029.7 0.0
29/11:00pm 8.4 6.1 7.5 94 0.4 E 9 11 5 6 1029.7 1029.7 0.0
29/10:30pm 7.1 5.4 6.0 93 0.5 ENE 4 7 2 4 1030.1 1030.1 0.0
29/10:00pm 7.1 4.9 6.0 93 0.5 NE 7 9 4 5 1030.0 1030.0 0.0
29/09:30pm 6.9 3.8 5.7 92 0.5 NE 11 13 6 7 1030.1 1030.1 0.0
29/09:00pm 6.6 3.8 5.2 91 0.6 NE 9 11 5 6 1030.1 1030.1 0.0
29/08:30pm 6.3 4.0 4.9 91 0.6 ENE 6 11 3 6 1029.9 1029.9 0.0
29/08:00pm 7.4 4.3 5.7 89 0.8 ENE 11 13 6 7 1029.9 1029.9 0.0
29/07:30pm 7.9 5.3 5.9 87 0.9 NE 9 11 5 6 1029.7 1029.7 0.0
29/07:00pm 9.6 7.8 7.2 85 1.1 E 6 7 3 4 1029.6 1029.6 0.0
29/06:30pm 10.1 8.3 7.2 82 1.4 NE 6 9 3 5 1029.3 1029.3 0.0
29/06:00pm 11.5 11.0 7.8 78 1.8 CALM 0 6 0 3 1029.1 1029.1 0.0
29/05:30pm 14.0 13.9 9.6 75 2.3 CALM 0 0 0 0 1028.8 1028.8 0.0
29/05:00pm 14.7 13.4 10.1 74 2.4 SSW 7 9 4 5 1028.8 1028.8 0.0
29/04:30pm 15.4 14.2 10.2 71 2.7 SSW 7 9 4 5 1028.7 1028.7 0.0
29/04:00pm 14.9 13.2 9.7 71 2.7 S 9 11 5 6 1028.7 1028.7 0.0
29/03:30pm 14.5 12.3 9.5 72 2.6 S 11 13 6 7 1028.7 1028.7 0.0
29/03:00pm 14.5 12.4 9.7 73 2.5 S 11 17 6 9 1028.7 1028.7 0.0
29/02:30pm 14.7 12.3 9.9 73 2.5 S 13 17 7 9 1028.8 1028.8 0.0
29/02:00pm 15.2 12.5 8.9 66 3.2 SSW 13 15 7 8 1028.9 1028.9 0.0
29/01:30pm 15.2 12.1 8.9 66 3.2 S 15 17 8 9 1028.8 1028.8 0.0
29/01:00pm 14.9 11.7 8.4 65 3.3 S 15 19 8 10 1028.9 1028.9 0.0
29/12:30pm 14.9 11.9 9.3 69 2.9 S 15 19 8 10 1029.1 1029.1 0.0
29/12:00pm 14.7 11.8 9.5 71 2.7 S 15 19 8 10 1029.4 1029.4 0.0
29/11:30am 15.0 12.1 9.8 71 2.7 S 15 17 8 9 1029.6 1029.6 0.0
29/11:00am 16.2 13.8 10.1 67 3.2 SSW 13 17 7 9 1029.7 1029.7 0.0
29/10:30am 16.7 14.7 10.1 65 3.5 S 11 15 6 8 1029.8 1029.8 0.0
29/10:00am 15.6 15.7 12.7 83 1.6 W 4 15 2 8 1029.8 1029.8 0.0
29/09:30am 14.5 14.7 13.2 92 0.7 NE 4 9 2 5 1030.0 1030.0 0.0
29/09:00am 13.1 12.5 12.3 95 0.4 ENE 7 9 4 5 1030.1 1030.1 0.0
29/08:30am 11.0 9.5 10.4 96 0.3 ENE 9 11 5 6 1029.8 1029.8 0.0
29/08:00am 8.4 5.4 7.8 96 0.3 ENE 13 15 7 8 1029.6 1029.6 0.0
29/07:30am 5.8 2.2 5.2 96 0.3 ENE 13 15 7 8 1029.4 1029.4 0.0
29/07:00am 4.1 -0.2 3.5 96 0.2 NE 15 17 8 9 1029.0 1029.0 0.0
29/06:30am 5.1 0.7 4.5 96 0.3 ENE 17 19 9 10 1028.8 1028.8 0.0
29/06:00am 4.0 -0.3 3.4 96 0.2 ENE 15 17 8 9 1028.6 1028.6 0.0
29/05:30am 5.4 1.4 4.8 96 0.3 NE 15 17 8 9 1028.5 1028.5 0.0
29/05:00am 4.3 0.1 3.6 95 0.3 ENE 15 17 8 9 1028.6 1028.6 0.0
29/04:30am 3.4 -1.0 2.7 95 0.3 ENE 15 17 8 9 1028.6 1028.6 0.0
29/04:00am 3.9 0.3 3.2 95 0.3 ENE 11 13 6 7 1028.6 1028.6 0.0
29/03:30am 3.6 0.4 2.9 95 0.3 ENE 9 11 5 6 1028.6 1028.6 0.0
29/03:00am 3.9 0.7 3.0 94 0.4 ENE 9 11 5 6 1028.5 1028.5 0.0
29/02:30am 4.4 1.3 3.5 94 0.4 ENE 9 9 5 5 1028.6 1028.6 0.0
29/02:00am 3.8 0.6 2.9 94 0.4 NE 9 9 5 5 1028.8 1028.8 0.0
29/01:30am 4.4 1.7 3.5 94 0.4 ENE 7 9 4 5 1029.1 1029.1 0.0
29/01:00am 5.2 3.2 4.3 94 0.4 ENE 4 6 2 3 1029.2 1029.2 0.0
29/12:30am 5.0 2.4 4.1 94 0.4 ENE 7 9 4 5 1029.1 1029.1 0.0
29/12:00am 4.7 1.6 3.7 93 0.4 ENE 9 9 5 5 1029.1 1029.1 0.0
 
Date/Time
EST
Temp
°C
App
Temp
°C
Dew
Point
Rel
Hum
%
Delta-T
°C
Wind Press
QNH
hPa
Press
MSL
hPa
Rain
since 9 am
mm
Dir
 
Spd
km/h
Gust
km/h
Spd
kts
Gust
kts
28/11:30pm 5.3 2.3 4.3 93 0.4 ENE 9 11 5 6 1029.1 1029.1 0.0
28/11:00pm 5.6 3.0 4.4 92 0.5 ENE 7 9 4 5 1029.2 1029.2 0.0
28/10:30pm 6.3 3.9 5.1 92 0.5 NE 7 7 4 4 1029.3 1029.3 0.0
28/10:00pm 6.8 4.1 5.6 92 0.5 NE 9 9 5 5 1029.3 1029.3 0.0
28/09:30pm 7.5 4.9 6.1 91 0.6 NE 9 11 5 6 1029.2 1029.2 0.0
28/09:00pm 8.6 5.8 7.1 90 0.7 ENE 11 11 6 6 1029.3 1029.3 0.0
28/08:30pm 9.8 7.3 8.2 90 0.8 ENE 11 11 6 6 1029.3 1029.3 0.0

Other Formats:

Comma delimited format used in spreadsheet applications
http://www.bom.gov.au/fwo/IDT60801/IDT60801.94980.axf

JavaScript Object Notation format (JSON) in row-major order
http://www.bom.gov.au/fwo/IDT60801/IDT60801.94980.json